createdAt,value
2018-02-12T00:01:01.411Z,93749.70
2018-02-12T00:03:29.807Z,93756.44
2018-02-12T00:05:58.246Z,93752.71
2018-02-12T00:08:26.628Z,93758.83
2018-02-12T00:10:55.038Z,93759.23
2018-02-12T00:13:23.444Z,93760.73
2018-02-12T00:15:51.902Z,93763.03
2018-02-12T00:18:20.399Z,93764.77
2018-02-12T00:20:48.803Z,93766.80
2018-02-12T00:23:17.179Z,93771.14
2018-02-12T00:25:45.585Z,93770.38
2018-02-12T00:28:14.126Z,93773.09
2018-02-12T00:30:42.605Z,93769.13
2018-02-12T00:33:11.006Z,93766.34
2018-02-12T00:35:39.431Z,93771.06
2018-02-12T00:38:07.899Z,93766.23
2018-02-12T00:40:36.295Z,93772.27
2018-02-12T00:43:04.703Z,93779.49
2018-02-12T00:45:33.094Z,93784.00
2018-02-12T00:48:01.482Z,93774.55
2018-02-12T00:50:30.267Z,93777.97
2018-02-12T00:52:58.654Z,93781.65
2018-02-12T00:55:27.051Z,93782.69
2018-02-12T00:57:55.466Z,93786.08
2018-02-12T01:00:23.862Z,93793.41
2018-02-12T01:02:52.296Z,93789.95
2018-02-12T01:05:20.688Z,93790.70
2018-02-12T01:07:49.130Z,93798.90
2018-02-12T01:10:17.546Z,93795.11
2018-02-12T01:12:46.028Z,93801.97
2018-02-12T01:15:14.445Z,93809.52
2018-02-12T01:17:42.826Z,93802.05
2018-02-12T01:20:11.231Z,93805.89
2018-02-12T01:22:39.645Z,93800.91
2018-02-12T01:25:08.130Z,93801.37
2018-02-12T01:27:36.553Z,93805.38
2018-02-12T01:30:04.959Z,93808.72
2018-02-12T01:32:33.391Z,93808.52
2018-02-12T01:35:01.858Z,93811.80
2018-02-12T01:37:30.319Z,93814.39
2018-02-12T01:39:58.718Z,93811.97
2018-02-12T01:42:27.197Z,93804.29
2018-02-12T01:44:55.925Z,93803.63
2018-02-12T01:47:24.331Z,93811.70
2018-02-12T01:50:04.286Z,93814.88
2018-02-12T01:52:32.698Z,93816.38
2018-02-12T01:55:01.095Z,93823.56
2018-02-12T01:57:29.570Z,93815.98
2018-02-12T01:59:57.982Z,93812.41
2018-02-12T02:02:26.401Z,93816.86
2018-02-12T02:04:54.802Z,93817.09
2018-02-12T02:07:23.223Z,93821.37
2018-02-12T02:09:51.765Z,93816.45
2018-02-12T02:12:20.173Z,93825.48
2018-02-12T02:14:48.577Z,93820.31
2018-02-12T02:17:17.088Z,93819.06
2018-02-12T02:19:45.549Z,93816.22
2018-02-12T02:22:14.052Z,93814.45
2018-02-12T02:24:42.507Z,93813.65
2018-02-12T02:27:10.916Z,93812.56
2018-02-12T02:29:39.298Z,93817.44
2018-02-12T02:32:07.745Z,93816.91
2018-02-12T02:34:36.260Z,93819.47
2018-02-12T02:37:04.651Z,93817.42
2018-02-12T02:39:33.087Z,93813.69
2018-02-12T02:42:01.634Z,93814.27
2018-02-12T02:44:30.026Z,93810.27
2018-02-12T02:46:58.426Z,93814.84
2018-02-12T02:49:26.823Z,93823.09
2018-02-12T02:51:55.239Z,93832.69
2018-02-12T02:54:23.765Z,93823.68
2018-02-12T02:56:52.242Z,93824.02
2018-02-12T02:59:20.635Z,93832.71
2018-02-12T03:01:49.041Z,93833.74
2018-02-12T03:04:17.448Z,93841.15
2018-02-12T03:06:45.907Z,93846.70
2018-02-12T03:09:14.303Z,93846.06
2018-02-12T03:11:43.196Z,93847.44
2018-02-12T03:14:11.593Z,93853.29
2018-02-12T03:16:39.999Z,93854.03
2018-02-12T03:19:08.387Z,93864.88
2018-02-12T03:21:36.784Z,93859.73
2018-02-12T03:24:05.242Z,93868.02
2018-02-12T03:26:34.580Z,93863.70
2018-02-12T03:29:03.170Z,93872.03
2018-02-12T03:31:31.564Z,93876.48
2018-02-12T03:33:59.963Z,93883.75
2018-02-12T03:36:28.762Z,93884.73
2018-02-12T03:38:57.155Z,93901.83
2018-02-12T03:41:25.544Z,93887.94
2018-02-12T03:43:53.933Z,93892.03
2018-02-12T03:46:22.397Z,93895.65
2018-02-12T03:48:50.793Z,93896.93
2018-02-12T03:51:19.272Z,93899.28
2018-02-12T03:53:47.648Z,93902.55
2018-02-12T03:56:16.052Z,93903.73
2018-02-12T03:58:44.572Z,93901.11
2018-02-12T04:01:13.043Z,93903.00
2018-02-12T04:03:41.533Z,93903.31
2018-02-12T04:06:09.925Z,93902.92
2018-02-12T04:08:38.305Z,93907.36
2018-02-12T04:11:06.698Z,93913.69
2018-02-12T04:13:35.181Z,93911.55
2018-02-12T04:16:03.587Z,93912.73
2018-02-12T04:18:31.975Z,93921.02
2018-02-12T04:21:00.373Z,93916.30
2018-02-12T04:23:28.822Z,93925.20
2018-02-12T04:25:57.213Z,93919.86
2018-02-12T04:28:25.607Z,93929.00
2018-02-12T04:30:54.086Z,93934.00
2018-02-12T04:33:22.466Z,93927.26
2018-02-12T04:35:50.910Z,93930.94
2018-02-12T04:38:19.302Z,93928.92
2018-02-12T04:40:47.714Z,93932.59
2018-02-12T04:43:16.111Z,93937.15
2018-02-12T04:45:44.574Z,93937.56
2018-02-12T04:48:12.988Z,93927.01
2018-02-12T04:50:41.558Z,93931.63
2018-02-12T04:53:10.016Z,93939.35
2018-02-12T04:55:38.410Z,93941.13
2018-02-12T04:58:06.790Z,93938.36
2018-02-12T05:00:35.178Z,93941.23
2018-02-12T05:03:03.636Z,93947.20
2018-02-12T05:05:32.047Z,93949.28
2018-02-12T05:08:00.540Z,93943.66
2018-02-12T05:10:28.942Z,93948.97
2018-02-12T05:12:57.342Z,93947.78
2018-02-12T05:15:25.729Z,93945.19
2018-02-12T05:17:54.161Z,93947.28
2018-02-12T05:20:22.614Z,93948.08
2018-02-12T05:22:51.010Z,93954.70
2018-02-12T05:25:19.399Z,93947.97
2018-02-12T05:27:47.857Z,93951.83
2018-02-12T05:30:16.253Z,93950.33
2018-02-12T05:32:44.729Z,93945.97
2018-02-12T05:35:13.107Z,93952.02
2018-02-12T05:37:41.595Z,93950.66
2018-02-12T05:40:10.003Z,93960.03
2018-02-12T05:42:38.490Z,93962.66
2018-02-12T05:45:06.942Z,93963.94
2018-02-12T05:47:35.329Z,93967.66
2018-02-12T05:50:03.719Z,93970.20
2018-02-12T05:52:32.102Z,93970.73
2018-02-12T05:55:00.506Z,93974.63
2018-02-12T05:57:28.995Z,93986.64
2018-02-12T05:59:57.394Z,93999.80
2018-02-12T06:02:25.786Z,93987.03
2018-02-12T06:04:54.496Z,94006.61
2018-02-12T06:07:22.890Z,94007.92
2018-02-12T06:09:51.371Z,94024.04
2018-02-12T06:12:19.780Z,94016.46
2018-02-12T06:14:48.187Z,94032.52
2018-02-12T06:17:16.582Z,94020.94
2018-02-12T06:19:45.067Z,94034.08
2018-02-12T06:22:13.534Z,94034.81
2018-02-12T06:24:41.939Z,94036.30
2018-02-12T06:27:10.326Z,94045.89
2018-02-12T06:29:38.734Z,94042.04
2018-02-12T06:32:07.218Z,94046.85
2018-02-12T06:34:35.619Z,94054.69
2018-02-12T06:37:04.028Z,94052.39
2018-02-12T06:39:32.437Z,94061.81
2018-02-12T06:42:00.846Z,94056.86
2018-02-12T06:44:29.321Z,94071.92
2018-02-12T06:46:57.740Z,94064.89
2018-02-12T06:49:27.158Z,94067.59
2018-02-12T06:51:55.558Z,94082.16
2018-02-12T06:54:23.955Z,94071.44
2018-02-12T06:56:53.338Z,94082.62
2018-02-12T06:59:21.733Z,94081.81
2018-02-12T07:01:50.207Z,94092.17
2018-02-12T07:04:18.607Z,94085.27
2018-02-12T07:06:47.087Z,94089.84
2018-02-12T07:09:15.470Z,94087.57
2018-02-12T07:11:43.885Z,94095.84
2018-02-12T07:14:12.432Z,94096.67
2018-02-12T07:16:40.988Z,94101.61
2018-02-12T07:19:09.445Z,94102.11
2018-02-12T07:21:38.834Z,94104.93
2018-02-12T07:24:07.236Z,94106.02
2018-02-12T07:26:35.673Z,94107.84
2018-02-12T07:29:04.088Z,94107.41
2018-02-12T07:31:32.579Z,94114.75
2018-02-12T07:34:00.981Z,94121.78
2018-02-12T07:36:29.416Z,94119.02
2018-02-12T07:38:57.863Z,94126.70
2018-02-12T07:41:26.255Z,94130.21
2018-02-12T07:43:54.717Z,94139.50
2018-02-12T07:46:23.136Z,94135.17
2018-02-12T07:48:51.539Z,94131.75
2018-02-12T07:51:20.069Z,94141.80
2018-02-12T07:53:48.475Z,94153.73
2018-02-12T07:56:16.932Z,94146.41
2018-02-12T07:58:45.394Z,94154.36
2018-02-12T08:01:13.908Z,94161.91
2018-02-12T08:03:42.381Z,94165.19
2018-02-12T08:06:10.783Z,94170.01
2018-02-12T08:08:39.184Z,94165.03
2018-02-12T08:11:07.572Z,94173.66
2018-02-12T08:13:36.041Z,94183.13
2018-02-12T08:16:04.454Z,94185.58
2018-02-12T08:18:32.896Z,94189.69
2018-02-12T08:21:01.291Z,94193.56
2018-02-12T08:23:29.748Z,94192.31
2018-02-12T08:25:58.208Z,94191.58
2018-02-12T08:28:26.604Z,94201.21
2018-02-12T08:30:55.086Z,94205.98
2018-02-12T08:33:23.496Z,94206.80
2018-02-12T08:35:51.906Z,94214.91
2018-02-12T08:38:20.328Z,94213.66
2018-02-12T08:40:48.823Z,94209.55
2018-02-12T08:43:17.290Z,94219.80
2018-02-12T08:45:45.677Z,94226.66
2018-02-12T08:48:14.104Z,94224.97
2018-02-12T08:50:42.538Z,94230.49
2018-02-12T08:53:10.942Z,94236.88
2018-02-12T08:55:39.411Z,94233.56
2018-02-12T08:58:07.890Z,94228.63
2018-02-12T09:00:36.272Z,94225.69
2018-02-12T09:03:04.783Z,94231.22
2018-02-12T09:05:33.188Z,94241.22
2018-02-12T09:08:01.654Z,94251.42
2018-02-12T09:10:30.041Z,94246.56
2018-02-12T09:12:58.428Z,94250.25
2018-02-12T09:15:26.835Z,94257.52
2018-02-12T09:17:55.266Z,94266.73
2018-02-12T09:20:23.772Z,94259.12
2018-02-12T09:22:52.173Z,94269.30
2018-02-12T09:25:20.582Z,94266.43
2018-02-12T09:27:48.996Z,94273.51
2018-02-12T09:30:17.407Z,94269.73
2018-02-12T09:32:45.961Z,94273.05
2018-02-12T09:35:14.372Z,94284.30
2018-02-12T09:37:42.795Z,94276.48
2018-02-12T09:40:11.203Z,94277.41
2018-02-12T09:42:39.615Z,94286.06
2018-02-12T09:45:08.182Z,94293.22
2018-02-12T09:47:36.664Z,94291.44
2018-02-12T09:50:05.095Z,94305.94
2018-02-12T09:52:33.494Z,94309.47
2018-02-12T09:55:01.899Z,94302.63
2018-02-12T09:57:30.353Z,94314.44
2018-02-12T09:59:58.753Z,94315.95
2018-02-12T10:02:27.149Z,94318.38
2018-02-12T10:04:55.564Z,94324.18
2018-02-12T10:07:29.509Z,94334.42
2018-02-12T10:09:57.940Z,94337.94
2018-02-12T10:12:26.366Z,94346.69
2018-02-12T10:14:54.828Z,94343.98
2018-02-12T10:17:23.248Z,94353.38
2018-02-12T10:19:51.649Z,94355.00
2018-02-12T10:22:20.072Z,94360.70
2018-02-12T10:24:48.498Z,94370.09
2018-02-12T10:27:16.996Z,94382.25
2018-02-12T10:29:45.428Z,94384.02
2018-02-12T10:32:13.848Z,94374.66
2018-02-12T10:34:42.297Z,94378.18
2018-02-12T10:37:10.670Z,94383.02
2018-02-12T10:39:39.126Z,94384.52
2018-02-12T10:42:07.531Z,94381.88
2018-02-12T10:44:35.941Z,94393.31
2018-02-12T10:47:04.330Z,94387.20
2018-02-12T10:49:32.706Z,94387.45
2018-02-12T10:52:01.186Z,94396.25
2018-02-12T10:54:29.598Z,94390.22
2018-02-12T10:56:58.004Z,94399.51
2018-02-12T10:59:26.401Z,94399.67
2018-02-12T11:01:54.802Z,94404.36
2018-02-12T11:04:23.336Z,94408.09
2018-02-12T11:06:51.730Z,94415.25
2018-02-12T11:09:20.121Z,94417.17
2018-02-12T11:11:48.510Z,94418.05
2018-02-12T11:14:16.928Z,94413.00
2018-02-12T11:16:45.369Z,94410.72
2018-02-12T11:19:13.813Z,94409.20
2018-02-12T11:21:42.279Z,94422.55
2018-02-12T11:24:10.688Z,94416.05
2018-02-12T11:26:39.087Z,94410.05
2018-02-12T11:29:07.546Z,94415.46
2018-02-12T11:31:35.928Z,94414.27
2018-02-12T11:34:04.327Z,94405.53
2018-02-12T11:36:32.759Z,94405.50
2018-02-12T11:39:01.221Z,94415.08
2018-02-12T11:41:29.631Z,94419.66
2018-02-12T11:43:58.062Z,94420.31
2018-02-12T11:46:26.546Z,94419.93
2018-02-12T11:48:55.003Z,94418.42
2018-02-12T11:51:23.460Z,94425.44
2018-02-12T11:53:51.869Z,94422.95
2018-02-12T11:56:20.285Z,94425.62
2018-02-12T11:58:48.683Z,94423.81
2018-02-12T12:01:17.104Z,94431.55
2018-02-12T12:03:45.579Z,94436.09
2018-02-12T12:06:14.214Z,94429.15
2018-02-12T12:08:42.715Z,94439.73
2018-02-12T12:11:11.122Z,94442.08
2018-02-12T12:13:39.544Z,94441.01
2018-02-12T12:16:07.994Z,94440.90
2018-02-12T12:18:36.411Z,94431.84
2018-02-12T12:21:04.815Z,94438.49
2018-02-12T12:23:33.215Z,94444.37
2018-02-12T12:26:01.625Z,94436.82
2018-02-12T12:28:30.102Z,94448.11
2018-02-12T12:30:58.528Z,94442.86
2018-02-12T12:33:26.932Z,94437.11
2018-02-12T12:35:55.340Z,94447.02
2018-02-12T12:38:23.798Z,94443.36
2018-02-12T12:40:52.251Z,94436.63
2018-02-12T12:43:20.653Z,94438.38
2018-02-12T12:45:49.103Z,94434.86
2018-02-12T12:48:17.532Z,94435.30
2018-02-12T12:50:45.998Z,94441.30
2018-02-12T12:53:14.413Z,94435.82
2018-02-12T12:55:42.906Z,94436.09
2018-02-12T12:58:11.322Z,94440.75
2018-02-12T13:00:39.785Z,94433.77
2018-02-12T13:03:08.251Z,94432.98
2018-02-12T13:05:36.840Z,94440.35
2018-02-12T13:08:05.302Z,94442.89
2018-02-12T13:10:33.779Z,94444.66
2018-02-12T13:13:02.209Z,94441.59
2018-02-12T13:15:30.684Z,94448.67
2018-02-12T13:17:59.070Z,94448.92
2018-02-12T13:20:27.538Z,94451.36
2018-02-12T13:22:55.950Z,94455.44
2018-02-12T13:25:24.362Z,94464.44
2018-02-12T13:27:52.762Z,94462.16
2018-02-12T13:30:21.162Z,94458.40
2018-02-12T13:32:49.623Z,94463.52
2018-02-12T13:35:18.027Z,94462.34
2018-02-12T13:37:46.445Z,94458.73
2018-02-12T13:40:14.856Z,94461.87
2018-02-12T13:42:43.273Z,94459.77
2018-02-12T13:45:11.767Z,94459.67
2018-02-12T13:47:40.192Z,94461.41
2018-02-12T13:50:08.592Z,94456.39
2018-02-12T13:52:37.006Z,94454.38
2018-02-12T13:55:05.638Z,94464.33
2018-02-12T13:57:34.415Z,94469.81
2018-02-12T14:00:02.843Z,94465.59
2018-02-12T14:02:32.223Z,94474.55
2018-02-12T14:05:01.608Z,94466.86
2018-02-12T14:07:29.997Z,94466.48
2018-02-12T14:09:58.458Z,94464.50
2018-02-12T14:12:26.912Z,94476.08
2018-02-12T14:14:55.372Z,94479.45
2018-02-12T14:17:23.799Z,94473.80
2018-02-12T14:19:52.307Z,94478.34
2018-02-12T14:22:20.747Z,94484.05
2018-02-12T14:24:49.180Z,94475.05
2018-02-12T14:27:17.774Z,94483.33
2018-02-12T14:29:46.190Z,94482.67
2018-02-12T14:32:14.731Z,94487.22
2018-02-12T14:34:43.142Z,94490.17
2018-02-12T14:37:11.542Z,94495.94
2018-02-12T14:39:40.090Z,94504.61
2018-02-12T14:42:08.494Z,94509.63
2018-02-12T14:44:36.914Z,94505.25
2018-02-12T14:47:05.339Z,94504.29
2018-02-12T14:49:35.334Z,94506.73
2018-02-12T14:52:03.831Z,94510.96
2018-02-12T14:54:32.260Z,94522.93
2018-02-12T14:57:00.709Z,94516.64
2018-02-12T14:59:29.108Z,94526.89
2018-02-12T15:01:57.486Z,94525.88
2018-02-12T15:04:25.954Z,94523.32
2018-02-12T15:06:54.357Z,94530.58
2018-02-12T15:09:22.830Z,94535.55
2018-02-12T15:11:51.246Z,94531.92
2018-02-12T15:14:19.640Z,94544.07
2018-02-12T15:16:48.056Z,94533.61
2018-02-12T15:19:16.456Z,94534.38
2018-02-12T15:21:45.059Z,94537.98
2018-02-12T15:24:13.450Z,94538.99
2018-02-12T15:26:41.927Z,94540.40
2018-02-12T15:29:10.318Z,94535.48
2018-02-12T15:31:38.713Z,94535.83
2018-02-12T15:34:07.184Z,94547.53
2018-02-12T15:36:35.576Z,94542.69
2018-02-12T15:39:04.063Z,94544.93
2018-02-12T15:41:32.506Z,94543.81
2018-02-12T15:44:00.901Z,94545.56
2018-02-12T15:46:29.379Z,94550.74
2018-02-12T15:48:59.510Z,94547.91
2018-02-12T15:51:27.919Z,94550.91
2018-02-12T15:53:56.353Z,94552.67
2018-02-12T15:56:24.754Z,94557.44
2018-02-12T15:58:53.242Z,94556.06
2018-02-12T16:01:21.632Z,94557.31
2018-02-12T16:03:50.041Z,94554.52
2018-02-12T16:06:18.436Z,94557.94
2018-02-12T16:08:47.817Z,94565.00
2018-02-12T16:11:16.307Z,94568.69
2018-02-12T16:13:44.790Z,94558.19
2018-02-12T16:16:13.189Z,94567.58
2018-02-12T16:18:41.785Z,94570.50
2018-02-12T16:21:10.185Z,94567.75
2018-02-12T16:23:38.748Z,94566.13
2018-02-12T16:26:07.134Z,94564.45
2018-02-12T16:28:35.592Z,94575.64
2018-02-12T16:31:04.020Z,94571.87
2018-02-12T16:33:32.452Z,94571.70
2018-02-12T16:36:01.289Z,94572.17
2018-02-12T16:38:29.802Z,94574.16
2018-02-12T16:40:58.322Z,94576.00
2018-02-12T16:43:26.713Z,94584.92
2018-02-12T16:45:55.124Z,94587.48
2018-02-12T16:48:23.580Z,94587.28
2018-02-12T16:50:51.987Z,94583.28
2018-02-12T16:53:20.492Z,94594.44
2018-02-12T16:55:48.911Z,94583.63
2018-02-12T16:58:17.315Z,94593.64
2018-02-12T17:00:46.019Z,94589.58
2018-02-12T17:03:14.438Z,94590.16
2018-02-12T17:05:42.836Z,94596.67
2018-02-12T17:08:11.215Z,94599.59
2018-02-12T17:10:39.609Z,94593.52
2018-02-12T17:13:08.089Z,94594.25
2018-02-12T17:15:36.501Z,94595.88
2018-02-12T17:18:04.922Z,94599.24
2018-02-12T17:20:33.461Z,94599.97
2018-02-12T17:23:01.832Z,94602.29
2018-02-12T17:25:30.379Z,94602.67
2018-02-12T17:27:58.795Z,94603.89
2018-02-12T17:30:27.301Z,94607.46
2018-02-12T17:32:55.714Z,94603.39
2018-02-12T17:35:24.203Z,94613.54
2018-02-12T17:37:52.681Z,94610.02
2018-02-12T17:40:21.115Z,94612.05
2018-02-12T17:42:49.530Z,94617.89
2018-02-12T17:45:17.922Z,94616.97
2018-02-12T17:47:46.333Z,94629.17
2018-02-12T17:50:14.891Z,94625.94
2018-02-12T17:52:43.323Z,94631.09
2018-02-12T17:55:11.721Z,94630.47
2018-02-12T17:57:40.152Z,94630.84
2018-02-12T18:00:08.543Z,94635.84
2018-02-12T18:02:37.036Z,94642.16
2018-02-12T18:05:05.577Z,94642.59
2018-02-12T18:07:33.986Z,94641.75
2018-02-12T18:10:02.377Z,94652.33
2018-02-12T18:12:30.781Z,94649.75
2018-02-12T18:14:59.276Z,94650.76
2018-02-12T18:17:27.752Z,94654.23
2018-02-12T18:19:56.186Z,94649.22
2018-02-12T18:22:24.583Z,94648.68
2018-02-12T18:24:53.045Z,94648.70
2018-02-12T18:27:21.530Z,94653.07
2018-02-12T18:29:49.944Z,94647.43
2018-02-12T18:32:18.361Z,94656.94
2018-02-12T18:34:46.761Z,94659.52
2018-02-12T18:37:15.409Z,94658.59
2018-02-12T18:39:44.081Z,94664.97
2018-02-12T18:42:12.493Z,94662.34
2018-02-12T18:44:41.006Z,94663.34
2018-02-12T18:47:09.438Z,94669.73
2018-02-12T18:49:37.857Z,94671.02
2018-02-12T18:52:06.307Z,94666.89
2018-02-12T18:54:34.716Z,94672.31
2018-02-12T18:57:03.209Z,94669.05
2018-02-12T18:59:31.617Z,94680.01
2018-02-12T19:02:00.100Z,94679.57
2018-02-12T19:04:28.597Z,94677.93
2018-02-12T19:06:57.036Z,94675.47
2018-02-12T19:09:25.461Z,94682.30
2018-02-12T19:11:53.888Z,94688.30
2018-02-12T19:14:22.370Z,94686.48
2018-02-12T19:16:50.830Z,94689.97
2018-02-12T19:19:19.232Z,94692.42
2018-02-12T19:21:47.656Z,94695.89
2018-02-12T19:24:16.128Z,94691.38
2018-02-12T19:26:44.554Z,94692.74
2018-02-12T19:29:13.323Z,94695.39
2018-02-12T19:31:41.751Z,94697.39
2018-02-12T19:34:10.158Z,94693.25
2018-02-12T19:36:38.564Z,94698.53
2018-02-12T19:39:07.005Z,94698.28
2018-02-12T19:41:35.791Z,94707.89
2018-02-12T19:44:04.273Z,94697.30
2018-02-12T19:46:32.715Z,94710.27
2018-02-12T19:49:01.186Z,94711.64
2018-02-12T19:51:29.643Z,94701.99
2018-02-12T19:53:58.640Z,94709.52
2018-02-12T19:56:27.140Z,94711.18
2018-02-12T19:58:55.537Z,94707.76
2018-02-12T20:01:23.967Z,94707.69
2018-02-12T20:03:52.399Z,94707.76
2018-02-12T20:06:20.902Z,94707.13
2018-02-12T20:08:49.340Z,94708.28
2018-02-12T20:11:17.744Z,94719.30
2018-02-12T20:13:46.164Z,94714.39
2018-02-12T20:16:14.547Z,94720.27
2018-02-12T20:18:43.031Z,94719.72
2018-02-12T20:21:11.422Z,94727.02
2018-02-12T20:23:39.832Z,94717.84
2018-02-12T20:26:08.252Z,94726.67
2018-02-12T20:28:36.677Z,94729.43
2018-02-12T20:31:05.249Z,94728.91
2018-02-12T20:33:33.661Z,94722.35
2018-02-12T20:36:02.072Z,94727.20
2018-02-12T20:38:30.474Z,94735.13
2018-02-12T20:40:58.878Z,94729.73
2018-02-12T20:43:27.288Z,94726.73
2018-02-12T20:45:55.697Z,94736.09
2018-02-12T20:48:24.576Z,94735.81
2018-02-12T20:50:52.977Z,94728.18
2018-02-12T20:53:21.385Z,94738.48
2018-02-12T20:55:49.875Z,94732.33
2018-02-12T20:58:19.172Z,94733.63
2018-02-12T21:00:47.633Z,94726.98
2018-02-12T21:03:16.145Z,94733.81
2018-02-12T21:05:44.618Z,94732.55
2018-02-12T21:08:13.009Z,94733.58
2018-02-12T21:10:41.406Z,94733.30
2018-02-12T21:13:09.875Z,94734.01
2018-02-12T21:15:38.291Z,94734.81
2018-02-12T21:18:07.764Z,94749.84
2018-02-12T21:20:36.459Z,94744.86
2018-02-12T21:23:05.163Z,94739.14
2018-02-12T21:25:33.921Z,94744.11
2018-02-12T21:28:02.508Z,94740.06
2018-02-12T21:30:31.107Z,94743.31
2018-02-12T21:32:59.742Z,94742.95
2018-02-12T21:35:28.237Z,94737.55
2018-02-12T21:37:59.607Z,94736.58
2018-02-12T21:40:28.004Z,94739.34
2018-02-12T21:42:56.456Z,94737.02
2018-02-12T21:45:24.860Z,94740.94
2018-02-12T21:47:53.346Z,94735.31
2018-02-12T21:50:22.391Z,94741.86
2018-02-12T21:52:50.946Z,94739.58
2018-02-12T21:55:19.329Z,94743.05
2018-02-12T21:57:47.734Z,94743.70
2018-02-12T22:00:16.189Z,94746.52
2018-02-12T22:02:44.640Z,94745.52
2018-02-12T22:05:13.151Z,94742.19
2018-02-12T22:07:41.629Z,94748.78
2018-02-12T22:10:10.038Z,94744.39
2018-02-12T22:12:38.587Z,94744.08
2018-02-12T22:15:06.982Z,94750.50
2018-02-12T22:17:35.396Z,94757.03
2018-02-12T22:20:03.798Z,94751.59
2018-02-12T22:22:32.237Z,94747.70
2018-02-12T22:25:00.815Z,94745.19
2018-02-12T22:27:29.305Z,94749.55
2018-02-12T22:29:57.701Z,94749.66
2018-02-12T22:32:26.104Z,94753.88
2018-02-12T22:34:54.527Z,94749.87
2018-02-12T22:37:22.990Z,94754.89
2018-02-12T22:39:51.392Z,94753.36
2018-02-12T22:42:19.801Z,94758.84
2018-02-12T22:44:48.207Z,94756.83
2018-02-12T22:47:16.610Z,94751.27
2018-02-12T22:49:45.119Z,94751.91
2018-02-12T22:52:13.598Z,94752.25
2018-02-12T22:54:41.998Z,94759.53
2018-02-12T22:57:10.389Z,94757.63
2018-02-12T22:59:38.955Z,94761.23
2018-02-12T23:04:42.096Z,94755.95
2018-02-12T23:07:10.570Z,94752.05
2018-02-12T23:09:38.965Z,94759.70
2018-02-12T23:12:07.360Z,94758.25
2018-02-12T23:14:37.994Z,94758.23
2018-02-12T23:17:11.936Z,94754.77
2018-02-12T23:19:40.417Z,94762.89
2018-02-12T23:22:08.840Z,94756.21
2018-02-12T23:24:37.628Z,94756.62
2018-02-12T23:27:06.049Z,94752.56
2018-02-12T23:29:34.562Z,94758.30
2018-02-12T23:32:02.946Z,94756.55
2018-02-12T23:34:31.355Z,94750.70
2018-02-12T23:36:59.970Z,94753.55
2018-02-12T23:39:28.463Z,94750.83
2018-02-12T23:41:56.871Z,94754.65
2018-02-12T23:44:25.273Z,94754.10
2018-02-12T23:46:53.658Z,94756.28
2018-02-12T23:49:22.122Z,94752.95
2018-02-12T23:51:50.525Z,94756.98
2018-02-12T23:54:24.913Z,94755.31
2018-02-12T23:56:53.332Z,94752.30
2018-02-12T23:59:21.736Z,94750.23
